Time;durP1;ratioP1;P1;durP2;ratioP2;P2;SDS_P1;SDS_P2;PMS_P1;PMS_P2;Temp;Humidity;BMP_temperature;BMP_pressure;BME280_temperature;BME280_humidity;BME280_pressure;Samples;Min_cycle;Max_cycle;Signal;HPM_P1;HPM_P2
2023/04/27 00:01:57;;;;;;;;;;;5.20;99.90;;;;;;5088564;28;19916;-52
2023/04/27 00:04:23;;;;;;;;;;;5.20;99.90;;;;;;5048459;28;20340;-52
2023/04/27 00:06:50;;;;;;;;;;;5.00;99.90;;;;;;5048272;28;19917;-52
2023/04/27 00:09:16;;;;;;;;;;;4.90;99.90;;;;;;5079721;28;19938;-53
2023/04/27 00:11:42;;;;;;;;;;;4.80;99.90;;;;;;5090996;28;19916;-52
2023/04/27 00:14:08;;;;;;;;;;;4.80;99.90;;;;;;5111357;28;19927;-52
2023/04/27 00:16:33;;;;;;;;;;;4.70;99.90;;;;;;5002175;28;19920;-53
2023/04/27 00:18:59;;;;;;;;;;;4.80;99.90;;;;;;5055446;28;19923;-52
2023/04/27 00:21:25;;;;;;;;;;;4.80;99.90;;;;;;5055325;28;19919;-52
2023/04/27 00:23:52;;;;;;;;;;;4.70;99.90;;;;;;5054909;28;20011;-52
2023/04/27 00:26:19;;;;;;;;;;;5.00;99.90;;;;;;5055443;28;19913;-52
2023/04/27 00:28:49;;;;;;;;;;;5.00;99.90;;;;;;5055254;28;19940;-52
2023/04/27 00:31:15;;;;;;;;;;;4.80;99.90;;;;;;5037204;28;19912;-52
2023/04/27 00:33:40;;;;;;;;;;;4.70;99.90;;;;;;5037311;28;19924;-52
2023/04/27 00:36:07;;;;;;;;;;;4.40;99.90;;;;;;5070414;28;20252;-52
2023/04/27 00:38:32;;;;;;;;;;;4.50;99.90;;;;;;5037182;28;19955;-52
2023/04/27 00:41:06;;;;;;;;;;;4.50;99.90;;;;;;5054967;28;20312;-52
2023/04/27 00:43:32;;;;;;;;;;;4.50;99.90;;;;;;5054925;28;19920;-52
2023/04/27 00:45:58;;;;;;;;;;;4.40;99.90;;;;;;5055015;28;19920;-52
2023/04/27 00:48:24;;;;;;;;;;;4.30;99.90;;;;;;5054820;28;19919;-52
2023/04/27 00:50:50;;;;;;;;;;;4.20;99.90;;;;;;5054807;28;19913;-52
2023/04/27 00:53:16;;;;;;;;;;;4.20;99.90;;;;;;5054556;28;19960;-52
2023/04/27 00:55:42;;;;;;;;;;;4.20;99.90;;;;;;5037012;28;20001;-52
2023/04/27 00:58:08;;;;;;;;;;;4.20;99.90;;;;;;5054752;28;19963;-52
2023/04/27 01:00:38;;;;;;;;;;;4.20;99.90;;;;;;5037020;28;19920;-53
2023/04/27 01:03:04;;;;;;;;;;;4.30;99.90;;;;;;5054960;28;19948;-52
2023/04/27 01:05:30;;;;;;;;;;;4.20;99.90;;;;;;5054595;28;20148;-52
2023/04/27 01:07:56;;;;;;;;;;;4.10;99.90;;;;;;5054406;28;19921;-52
2023/04/27 01:10:22;;;;;;;;;;;4.10;99.90;;;;;;5054510;28;19917;-52
2023/04/27 01:12:47;;;;;;;;;;;4.30;99.90;;;;;;5054570;28;19913;-52
2023/04/27 01:15:13;;;;;;;;;;;4.30;99.90;;;;;;5054558;28;20340;-52
2023/04/27 01:17:39;;;;;;;;;;;4.50;99.90;;;;;;5054485;28;19921;-52
2023/04/27 01:20:09;;;;;;;;;;;4.20;99.90;;;;;;5054605;28;19924;-52
2023/04/27 01:22:35;;;;;;;;;;;4.00;99.90;;;;;;5054514;28;19921;-52
2023/04/27 01:25:01;;;;;;;;;;;3.90;99.90;;;;;;5054629;28;19913;-52
2023/04/27 01:27:30;;;;;;;;;;;4.00;99.90;;;;;;5069792;28;19916;-53
2023/04/27 01:29:55;;;;;;;;;;;3.90;99.90;;;;;;5054449;28;19913;-52
2023/04/27 01:32:23;;;;;;;;;;;3.90;99.90;;;;;;5036820;28;19913;-52
2023/04/27 01:34:51;;;;;;;;;;;3.90;99.90;;;;;;5054234;28;20007;-52
2023/04/27 01:37:17;;;;;;;;;;;3.90;99.90;;;;;;5054350;28;19963;-52
2023/04/27 01:39:42;;;;;;;;;;;4.10;99.90;;;;;;5054420;28;19912;-53
2023/04/27 01:42:08;;;;;;;;;;;4.10;99.90;;;;;;5054411;28;19927;-53
2023/04/27 01:44:38;;;;;;;;;;;4.00;99.90;;;;;;5036569;28;20011;-53
2023/04/27 01:47:03;;;;;;;;;;;3.90;99.90;;;;;;5054321;28;19952;-53
2023/04/27 01:49:29;;;;;;;;;;;3.80;99.90;;;;;;5054250;28;19920;-53
2023/04/27 01:51:55;;;;;;;;;;;3.70;99.90;;;;;;5054158;28;19909;-53
2023/04/27 01:54:21;;;;;;;;;;;3.70;99.90;;;;;;5036425;28;19971;-52
2023/04/27 01:56:47;;;;;;;;;;;3.60;99.90;;;;;;5054217;28;19920;-53
2023/04/27 01:59:12;;;;;;;;;;;3.70;99.90;;;;;;5036494;28;19993;-52
2023/04/27 02:01:39;;;;;;;;;;;3.80;99.90;;;;;;5036321;28;19917;-53
2023/04/27 02:04:05;;;;;;;;;;;3.80;99.90;;;;;;5053911;28;19939;-53
2023/04/27 02:06:31;;;;;;;;;;;3.70;99.90;;;;;;5036508;28;20216;-53
2023/04/27 02:08:57;;;;;;;;;;;3.70;99.90;;;;;;5036294;28;19921;-52
2023/04/27 02:11:23;;;;;;;;;;;3.70;99.90;;;;;;5054053;28;20062;-53
2023/04/27 02:13:49;;;;;;;;;;;3.80;99.90;;;;;;5036223;28;19916;-52
2023/04/27 02:16:15;;;;;;;;;;;3.80;99.90;;;;;;5036127;28;20004;-52
2023/04/27 02:18:41;;;;;;;;;;;3.60;99.90;;;;;;5056806;28;20302;-53
2023/04/27 02:21:09;;;;;;;;;;;3.50;99.90;;;;;;5039843;28;19920;-53
2023/04/27 02:23:35;;;;;;;;;;;3.60;99.90;;;;;;5039520;28;20278;-53
2023/04/27 02:26:04;;;;;;;;;;;3.50;99.90;;;;;;5057453;28;19923;-52
2023/04/27 02:28:31;;;;;;;;;;;3.40;99.90;;;;;;5039530;28;19913;-52
2023/04/27 02:30:57;;;;;;;;;;;3.40;99.90;;;;;;5039453;28;19916;-52
2023/04/27 02:33:23;;;;;;;;;;;3.50;99.90;;;;;;5039341;28;19917;-52
2023/04/27 02:35:49;;;;;;;;;;;3.60;99.90;;;;;;5057450;28;20367;-52
2023/04/27 02:38:15;;;;;;;;;;;3.60;99.90;;;;;;5039395;28;19916;-52
2023/04/27 02:40:41;;;;;;;;;;;3.50;99.90;;;;;;5039270;28;19917;-53
2023/04/27 02:43:07;;;;;;;;;;;3.40;99.90;;;;;;5039357;28;20370;-53
2023/04/27 02:45:35;;;;;;;;;;;3.40;99.90;;;;;;5039137;28;19916;-52
2023/04/27 02:48:01;;;;;;;;;;;3.40;99.90;;;;;;5057035;28;19920;-52
2023/04/27 02:50:27;;;;;;;;;;;3.40;99.90;;;;;;5057241;28;20382;-52
2023/04/27 02:52:53;;;;;;;;;;;3.30;99.90;;;;;;5038957;28;20370;-52
2023/04/27 02:55:20;;;;;;;;;;;3.20;99.90;;;;;;5038993;28;19917;-53
2023/04/27 02:57:46;;;;;;;;;;;3.20;99.90;;;;;;5057022;28;19913;-52
2023/04/27 03:00:12;;;;;;;;;;;3.20;99.90;;;;;;5072562;28;19936;-52
2023/04/27 03:02:37;;;;;;;;;;;3.10;99.90;;;;;;5056862;28;20130;-52
2023/04/27 03:05:04;;;;;;;;;;;3.10;99.90;;;;;;5038710;28;19931;-52
2023/04/27 03:07:30;;;;;;;;;;;3.10;99.90;;;;;;5056664;28;19919;-53
2023/04/27 03:09:56;;;;;;;;;;;3.10;99.90;;;;;;5071937;28;19913;-53
2023/04/27 03:12:21;;;;;;;;;;;3.20;99.90;;;;;;5056591;28;19916;-53
2023/04/27 03:14:47;;;;;;;;;;;3.10;99.90;;;;;;5038580;28;19923;-53
2023/04/27 03:17:13;;;;;;;;;;;3.10;99.90;;;;;;5056387;28;19924;-53
2023/04/27 03:19:40;;;;;;;;;;;3.00;99.90;;;;;;5056477;28;19920;-52
2023/04/27 03:22:05;;;;;;;;;;;2.90;99.90;;;;;;5056530;28;19920;-53
2023/04/27 03:24:32;;;;;;;;;;;2.90;99.90;;;;;;5056731;28;19913;-53
2023/04/27 03:26:57;;;;;;;;;;;2.90;99.90;;;;;;5038405;28;19959;-53
2023/04/27 03:29:23;;;;;;;;;;;2.90;99.90;;;;;;5037987;28;20317;-53
2023/04/27 03:31:49;;;;;;;;;;;2.80;99.90;;;;;;5056272;28;19962;-53
2023/04/27 03:34:15;;;;;;;;;;;2.80;99.90;;;;;;5038299;28;19923;-52
2023/04/27 03:36:41;;;;;;;;;;;2.70;99.90;;;;;;5038341;28;19916;-52
2023/04/27 03:39:09;;;;;;;;;;;2.70;99.90;;;;;;5038230;28;20341;-52
2023/04/27 03:41:34;;;;;;;;;;;2.70;99.90;;;;;;5038200;28;19912;-53
2023/04/27 03:44:00;;;;;;;;;;;2.70;99.90;;;;;;5038026;28;19920;-52
2023/04/27 03:46:26;;;;;;;;;;;2.70;99.90;;;;;;5038118;28;19913;-52
2023/04/27 03:48:52;;;;;;;;;;;2.80;99.90;;;;;;5055808;28;19923;-52
2023/04/27 03:51:18;;;;;;;;;;;2.90;99.90;;;;;;5037934;28;19912;-52
2023/04/27 03:53:45;;;;;;;;;;;2.90;99.90;;;;;;5037991;28;19924;-53
2023/04/27 03:56:12;;;;;;;;;;;2.90;99.90;;;;;;5037783;28;19915;-52
2023/04/27 03:58:38;;;;;;;;;;;2.80;99.90;;;;;;5071124;28;20016;-53
2023/04/27 04:01:13;;;;;;;;;;;2.90;99.90;;;;;;5071285;28;19964;-53
2023/04/27 04:03:39;;;;;;;;;;;3.00;99.90;;;;;;5037549;28;19947;-53
2023/04/27 04:06:07;;;;;;;;;;;3.10;99.90;;;;;;5037718;28;19924;-53
2023/04/27 04:08:33;;;;;;;;;;;3.20;99.90;;;;;;5055516;28;20003;-52
2023/04/27 04:11:00;;;;;;;;;;;3.20;99.90;;;;;;5037590;28;19920;-52
2023/04/27 04:13:26;;;;;;;;;;;3.30;99.90;;;;;;5037510;28;20004;-52
2023/04/27 04:16:05;;;;;;;;;;;3.20;99.90;;;;;;5037582;28;19959;-52
2023/04/27 04:18:32;;;;;;;;;;;3.10;99.90;;;;;;5037288;28;19920;-53
2023/04/27 04:20:58;;;;;;;;;;;3.00;99.90;;;;;;5037401;28;19920;-52
2023/04/27 04:23:24;;;;;;;;;;;3.00;99.90;;;;;;5037469;28;19920;-52
2023/04/27 04:25:51;;;;;;;;;;;3.10;99.90;;;;;;5037071;28;19913;-53
2023/04/27 04:28:19;;;;;;;;;;;3.20;99.90;;;;;;5037304;28;19913;-53
2023/04/27 04:30:44;;;;;;;;;;;3.10;99.90;;;;;;5037337;28;19962;-52
2023/04/27 04:33:11;;;;;;;;;;;3.10;99.90;;;;;;5055163;28;19962;-53
2023/04/27 04:35:37;;;;;;;;;;;3.10;99.90;;;;;;5055188;28;20300;-52
2023/04/27 04:38:03;;;;;;;;;;;3.10;99.90;;;;;;5037089;28;20426;-52
2023/04/27 04:40:29;;;;;;;;;;;3.30;99.90;;;;;;5054383;28;19912;-53
2023/04/27 04:42:55;;;;;;;;;;;3.30;99.90;;;;;;5037200;28;19920;-53
2023/04/27 04:45:21;;;;;;;;;;;3.50;99.90;;;;;;5054778;28;19951;-53
2023/04/27 04:47:48;;;;;;;;;;;3.50;99.90;;;;;;5036899;28;20354;-53
2023/04/27 04:50:14;;;;;;;;;;;3.50;99.90;;;;;;5036965;28;19920;-53
2023/04/27 04:52:40;;;;;;;;;;;3.60;99.90;;;;;;5036839;28;19920;-52
2023/04/27 04:55:06;;;;;;;;;;;3.70;99.90;;;;;;5036715;28;20403;-53
2023/04/27 04:57:31;;;;;;;;;;;3.80;99.90;;;;;;5054854;28;19916;-53
2023/04/27 04:59:57;;;;;;;;;;;3.80;99.90;;;;;;5054778;28;20271;-52
2023/04/27 05:02:23;;;;;;;;;;;4.00;99.90;;;;;;5054655;28;19921;-53
2023/04/27 05:04:50;;;;;;;;;;;4.10;99.90;;;;;;5054697;28;19913;-52
2023/04/27 05:07:16;;;;;;;;;;;4.30;99.90;;;;;;5054521;28;19951;-53
2023/04/27 05:09:42;;;;;;;;;;;4.50;99.90;;;;;;5054447;28;20023;-53
2023/04/27 05:12:08;;;;;;;;;;;4.60;99.90;;;;;;5054474;28;20026;-53
2023/04/27 05:14:34;;;;;;;;;;;4.70;99.90;;;;;;5054246;28;19917;-53
2023/04/27 05:17:00;;;;;;;;;;;4.90;99.90;;;;;;5054268;28;19919;-53
2023/04/27 05:19:29;;;;;;;;;;;4.80;99.90;;;;;;5054606;28;19920;-52
2023/04/27 05:21:56;;;;;;;;;;;4.90;99.90;;;;;;5054100;28;19912;-52
2023/04/27 05:24:22;;;;;;;;;;;5.10;99.90;;;;;;5054296;28;19917;-52
2023/04/27 05:26:48;;;;;;;;;;;5.40;99.90;;;;;;5054517;28;19912;-52
2023/04/27 05:29:13;;;;;;;;;;;5.60;99.90;;;;;;5054239;28;19958;-53
2023/04/27 05:31:39;;;;;;;;;;;5.50;99.90;;;;;;5054412;28;20354;-53
2023/04/27 05:34:05;;;;;;;;;;;5.50;99.90;;;;;;5054474;28;19923;-52
2023/04/27 05:36:31;;;;;;;;;;;5.70;99.90;;;;;;5052279;28;19916;-52
2023/04/27 05:38:56;;;;;;;;;;;5.70;99.90;;;;;;5067775;28;19916;-52
2023/04/27 05:41:22;;;;;;;;;;;5.90;99.90;;;;;;5074194;28;19927;-52
2023/04/27 05:43:48;;;;;;;;;;;5.90;99.90;;;;;;5089551;28;19967;-52
2023/04/27 05:46:14;;;;;;;;;;;6.20;99.90;;;;;;5074262;28;19924;-53
2023/04/27 05:48:40;;;;;;;;;;;6.50;99.90;;;;;;5074285;28;19919;-52
2023/04/27 05:51:06;;;;;;;;;;;6.70;99.90;;;;;;5073685;28;19917;-53
2023/04/27 05:53:33;;;;;;;;;;;6.70;99.90;;;;;;5076362;28;19973;-53
2023/04/27 05:55:59;;;;;;;;;;;6.80;99.90;;;;;;5077773;28;19913;-53
2023/04/27 05:58:26;;;;;;;;;;;6.80;99.90;;;;;;5074620;28;20415;-53
2023/04/27 06:00:52;;;;;;;;;;;6.90;99.90;;;;;;5077303;28;19971;-52
2023/04/27 06:03:25;;;;;;;;;;;7.10;99.90;;;;;;5077737;28;19913;-52
2023/04/27 06:05:57;;;;;;;;;;;7.30;99.90;;;;;;5077496;28;19912;-53
2023/04/27 06:08:23;;;;;;;;;;;7.40;99.90;;;;;;5077582;28;20351;-53
2023/04/27 06:10:50;;;;;;;;;;;7.40;99.90;;;;;;5077621;28;19909;-53
2023/04/27 06:13:16;;;;;;;;;;;7.60;99.90;;;;;;5077252;28;19927;-53
2023/04/27 06:15:42;;;;;;;;;;;7.70;99.90;;;;;;5077566;28;19913;-53
2023/04/27 06:18:07;;;;;;;;;;;7.70;99.90;;;;;;5075171;28;19986;-53
2023/04/27 06:20:33;;;;;;;;;;;7.90;99.90;;;;;;5064956;28;20419;-53
2023/04/27 06:23:00;;;;;;;;;;;8.00;99.90;;;;;;5072106;28;19912;-53
2023/04/27 06:25:27;;;;;;;;;;;8.30;99.90;;;;;;5067816;28;19947;-53
2023/04/27 06:27:57;;;;;;;;;;;8.50;99.70;;;;;;5077290;28;20054;-52
2023/04/27 06:30:23;;;;;;;;;;;8.70;97.50;;;;;;5077616;28;20381;-52
2023/04/27 06:32:49;;;;;;;;;;;8.80;97.50;;;;;;5063517;28;20284;-52
2023/04/27 06:35:15;;;;;;;;;;;9.30;98.10;;;;;;5061204;28;20285;-52
2023/04/27 06:37:41;;;;;;;;;;;9.50;95.60;;;;;;5076953;28;19913;-52
2023/04/27 06:40:07;;;;;;;;;;;9.70;96.40;;;;;;5076982;28;19912;-52
2023/04/27 06:42:33;;;;;;;;;;;10.10;95.40;;;;;;5077197;28;19912;-52
2023/04/27 06:44:59;;;;;;;;;;;10.30;94.20;;;;;;5065408;28;19967;-52
2023/04/27 06:47:25;;;;;;;;;;;10.50;94.60;;;;;;5056901;28;19913;-53
2023/04/27 06:49:51;;;;;;;;;;;10.60;94.00;;;;;;5056831;28;19960;-52
2023/04/27 06:52:17;;;;;;;;;;;10.50;94.50;;;;;;5056801;28;19956;-52
2023/04/27 06:54:42;;;;;;;;;;;10.70;93.50;;;;;;5056967;28;19913;-52
2023/04/27 06:57:08;;;;;;;;;;;10.80;93.80;;;;;;5056802;28;19917;-52
2023/04/27 06:59:34;;;;;;;;;;;11.20;93.40;;;;;;5057087;28;20298;-53
2023/04/27 07:02:00;;;;;;;;;;;11.60;92.90;;;;;;5056501;28;20391;-53
2023/04/27 07:04:26;;;;;;;;;;;11.80;90.80;;;;;;5056003;28;19993;-53
2023/04/27 07:06:52;;;;;;;;;;;12.00;89.70;;;;;;5056662;28;19943;-52
2023/04/27 07:09:18;;;;;;;;;;;12.20;86.00;;;;;;5056493;28;19913;-52
2023/04/27 07:11:43;;;;;;;;;;;12.60;87.30;;;;;;5057553;28;19931;-52
2023/04/27 07:14:09;;;;;;;;;;;12.20;81.90;;;;;;5063984;28;19920;-53
2023/04/27 07:16:35;;;;;;;;;;;12.60;83.10;;;;;;5059080;28;19912;-53
2023/04/27 07:19:01;;;;;;;;;;;13.00;82.80;;;;;;5075855;28;19963;-53
2023/04/27 07:21:27;;;;;;;;;;;13.30;82.40;;;;;;5076372;28;19966;-53
2023/04/27 07:23:53;;;;;;;;;;;13.60;78.90;;;;;;5076174;28;19916;-52
2023/04/27 07:26:19;;;;;;;;;;;14.10;77.40;;;;;;5059025;28;19935;-53
2023/04/27 07:28:46;;;;;;;;;;;14.20;75.20;;;;;;5055910;28;19958;-53
2023/04/27 07:31:11;;;;;;;;;;;14.50;74.20;;;;;;5056496;28;20404;-53
2023/04/27 07:33:37;;;;;;;;;;;14.50;72.00;;;;;;5057129;28;19913;-53
2023/04/27 07:36:04;;;;;;;;;;;14.70;70.50;;;;;;5076717;28;19912;-53
2023/04/27 07:38:30;;;;;;;;;;;14.50;70.20;;;;;;5074547;28;20380;-53
2023/04/27 07:41:00;;;;;;;;;;;14.40;70.60;;;;;;5075785;28;20370;-52
2023/04/27 07:43:26;;;;;;;;;;;14.80;72.10;;;;;;5074559;28;20377;-53
2023/04/27 07:45:53;;;;;;;;;;;14.80;68.90;;;;;;5060325;28;19943;-53
2023/04/27 07:48:19;;;;;;;;;;;14.90;68.90;;;;;;5074131;28;20007;-53
2023/04/27 07:50:45;;;;;;;;;;;15.00;68.70;;;;;;5075532;28;19970;-53
2023/04/27 07:53:11;;;;;;;;;;;14.80;70.00;;;;;;5073848;28;19912;-53
2023/04/27 07:55:36;;;;;;;;;;;14.90;67.70;;;;;;5073609;28;19976;-53
2023/04/27 07:58:03;;;;;;;;;;;15.30;68.80;;;;;;5074611;28;19913;-53
2023/04/27 08:00:31;;;;;;;;;;;15.70;66.20;;;;;;5075047;28;20002;-52
2023/04/27 08:02:57;;;;;;;;;;;15.30;64.20;;;;;;5074940;28;19916;-53
2023/04/27 08:05:23;;;;;;;;;;;16.00;63.10;;;;;;5074897;28;19954;-53
2023/04/27 08:07:52;;;;;;;;;;;16.50;61.10;;;;;;5074440;28;19943;-53
2023/04/27 08:10:17;;;;;;;;;;;16.90;61.10;;;;;;5075274;28;19920;-53
2023/04/27 08:12:43;;;;;;;;;;;17.30;60.20;;;;;;5075065;28;19916;-53
2023/04/27 08:15:09;;;;;;;;;;;17.70;54.50;;;;;;5072733;28;19920;-53
2023/04/27 08:17:36;;;;;;;;;;;18.00;52.20;;;;;;5066127;28;19927;-53
2023/04/27 08:20:02;;;;;;;;;;;18.10;50.00;;;;;;5074808;28;19919;-53
2023/04/27 08:22:28;;;;;;;;;;;18.20;49.50;;;;;;5074894;28;19923;-53
2023/04/27 08:24:53;;;;;;;;;;;18.00;48.60;;;;;;5075521;28;20432;-53
2023/04/27 08:27:19;;;;;;;;;;;18.40;48.50;;;;;;5074836;28;20397;-53
2023/04/27 08:29:48;;;;;;;;;;;18.70;49.00;;;;;;5075586;28;19934;-53
2023/04/27 08:32:14;;;;;;;;;;;19.00;47.80;;;;;;5075949;28;19923;-53
2023/04/27 08:34:40;;;;;;;;;;;18.90;45.00;;;;;;5074598;28;19963;-53
2023/04/27 08:37:07;;;;;;;;;;;18.90;43.70;;;;;;5075279;28;19924;-53
2023/04/27 08:39:33;;;;;;;;;;;18.60;43.20;;;;;;5075649;28;19928;-54
2023/04/27 08:41:59;;;;;;;;;;;18.40;45.70;;;;;;5075425;28;19916;-53
2023/04/27 08:44:28;;;;;;;;;;;18.60;42.80;;;;;;5074490;28;19916;-53
2023/04/27 08:46:54;;;;;;;;;;;18.60;43.60;;;;;;5064592;28;20381;-53
2023/04/27 08:49:20;;;;;;;;;;;18.40;44.90;;;;;;5073404;28;19936;-53
2023/04/27 08:51:46;;;;;;;;;;;18.60;46.90;;;;;;5073770;28;19917;-53
2023/04/27 08:54:11;;;;;;;;;;;18.40;43.20;;;;;;5073465;28;19982;-53
2023/04/27 08:56:37;;;;;;;;;;;18.30;44.90;;;;;;5074040;28;19922;-53
2023/04/27 08:59:11;;;;;;;;;;;18.10;46.20;;;;;;5073956;28;20383;-53
2023/04/27 09:01:42;;;;;;;;;;;17.70;45.70;;;;;;5072191;28;20389;-53
2023/04/27 09:04:08;;;;;;;;;;;17.30;43.60;;;;;;5080339;28;20027;-53
2023/04/27 09:06:34;;;;;;;;;;;16.80;45.50;;;;;;5080026;28;20384;-53
2023/04/27 09:09:00;;;;;;;;;;;16.50;45.30;;;;;;5071953;28;19916;-53
2023/04/27 09:11:30;;;;;;;;;;;16.40;46.20;;;;;;5072353;28;20381;-53
2023/04/27 09:13:57;;;;;;;;;;;16.40;48.80;;;;;;5073111;28;20019;-53
2023/04/27 09:16:23;;;;;;;;;;;16.70;47.80;;;;;;5073082;28;19913;-53
2023/04/27 09:18:49;;;;;;;;;;;16.90;44.80;;;;;;5071918;28;20285;-53
2023/04/27 09:21:25;;;;;;;;;;;16.90;47.50;;;;;;5072752;28;20007;-53
2023/04/27 09:23:51;;;;;;;;;;;17.40;47.20;;;;;;5072349;28;20378;-53
2023/04/27 09:26:23;;;;;;;;;;;17.30;47.10;;;;;;5073418;28;19997;-53
2023/04/27 09:28:50;;;;;;;;;;;17.40;47.10;;;;;;5076509;28;19912;-53
2023/04/27 09:31:16;;;;;;;;;;;17.10;47.10;;;;;;5076297;28;19960;-53
2023/04/27 09:33:46;;;;;;;;;;;16.90;48.00;;;;;;5076301;28;19965;-53
2023/04/27 09:36:12;;;;;;;;;;;17.00;46.40;;;;;;5075574;28;19923;-53
2023/04/27 09:38:38;;;;;;;;;;;17.00;46.60;;;;;;5076208;28;19918;-53
2023/04/27 09:41:04;;;;;;;;;;;16.40;44.80;;;;;;5075760;28;19924;-52
2023/04/27 09:43:30;;;;;;;;;;;16.50;46.90;;;;;;5071746;28;19966;-52
2023/04/27 09:45:57;;;;;;;;;;;16.90;47.80;;;;;;5076288;28;20393;-52
2023/04/27 09:48:23;;;;;;;;;;;17.10;46.60;;;;;;5071864;28;19955;-52
2023/04/27 09:50:50;;;;;;;;;;;17.00;49.60;;;;;;5075101;28;19912;-52
2023/04/27 09:53:28;;;;;;;;;;;17.20;45.80;;;;;;5075533;28;19924;-52
2023/04/27 09:56:19;;;;;;;;;;;17.10;42.30;;;;;;5074116;28;19921;-52
2023/04/27 09:59:06;;;;;;;;;;;17.00;43.70;;;;;;5076130;28;19952;-52
2023/04/27 10:01:39;;;;;;;;;;;17.00;44.90;;;;;;5070550;28;20323;-53
2023/04/27 10:04:24;;;;;;;;;;;17.50;45.70;;;;;;5076248;28;19916;-53
2023/04/27 10:06:53;;;;;;;;;;;17.90;47.20;;;;;;5075703;28;19912;-53
2023/04/27 10:09:22;;;;;;;;;;;18.20;46.10;;;;;;5075445;28;20273;-53
2023/04/27 10:11:48;;;;;;;;;;;16.80;42.40;;;;;;5074990;28;20350;-53
2023/04/27 10:14:18;;;;;;;;;;;17.10;46.30;;;;;;5076081;28;20358;-52
2023/04/27 10:17:00;;;;;;;;;;;17.30;46.70;;;;;;5074852;28;19923;-53
2023/04/27 10:19:29;;;;;;;;;;;17.50;45.50;;;;;;5075970;28;19924;-53
2023/04/27 10:22:06;;;;;;;;;;;17.50;47.20;;;;;;5074767;28;19909;-52
2023/04/27 10:24:33;;;;;;;;;;;17.70;45.40;;;;;;5075177;28;19913;-52
2023/04/27 10:27:02;;;;;;;;;;;18.00;44.30;;;;;;5074782;28;19912;-53
2023/04/27 10:29:34;;;;;;;;;;;18.10;44.50;;;;;;5053175;28;19974;-53
2023/04/27 10:32:04;;;;;;;;;;;18.40;45.40;;;;;;5048367;28;20035;-53
2023/04/27 10:34:36;;;;;;;;;;;18.70;43.30;;;;;;5049220;28;19928;-53
2023/04/27 10:37:09;;;;;;;;;;;18.60;40.90;;;;;;5048670;28;19916;-53
2023/04/27 10:39:39;;;;;;;;;;;17.60;43.90;;;;;;5047844;28;19920;-53
2023/04/27 10:42:06;;;;;;;;;;;17.70;44.80;;;;;;5050073;28;19916;-53
2023/04/27 10:44:32;;;;;;;;;;;17.80;42.70;;;;;;5049998;28;19913;-52
2023/04/27 10:47:11;;;;;;;;;;;18.00;42.40;;;;;;5049220;28;20346;-53
2023/04/27 10:49:37;;;;;;;;;;;17.90;42.20;;;;;;5050157;28;20306;-52
2023/04/27 10:52:04;;;;;;;;;;;18.20;42.20;;;;;;5040309;28;20026;-52
2023/04/27 10:54:30;;;;;;;;;;;18.00;44.40;;;;;;5031038;28;19978;-53
2023/04/27 10:57:03;;;;;;;;;;;18.00;42.80;;;;;;5033153;28;20337;-53
2023/04/27 10:59:29;;;;;;;;;;;18.00;44.00;;;;;;5035376;28;20346;-52
2023/04/27 11:01:55;;;;;;;;;;;18.40;43.40;;;;;;5017676;28;19912;-53
2023/04/27 11:04:20;;;;;;;;;;;18.90;45.00;;;;;;5034458;28;19916;-53
2023/04/27 11:06:46;;;;;;;;;;;19.10;41.90;;;;;;5036891;28;19913;-53
2023/04/27 11:09:13;;;;;;;;;;;18.90;43.00;;;;;;5034838;28;20011;-53
2023/04/27 11:11:43;;;;;;;;;;;19.10;39.90;;;;;;5033438;28;20011;-53
2023/04/27 11:14:08;;;;;;;;;;;19.50;44.20;;;;;;5043418;28;19928;-53
2023/04/27 11:16:34;;;;;;;;;;;20.20;42.40;;;;;;5054728;28;19916;-53
2023/04/27 11:19:05;;;;;;;;;;;20.50;38.90;;;;;;5053393;28;19931;-53
2023/04/27 11:21:31;;;;;;;;;;;20.70;39.40;;;;;;5054714;28;19951;-53
2023/04/27 11:24:02;;;;;;;;;;;20.80;41.20;;;;;;5051758;28;20766;-53
2023/04/27 11:26:28;;;;;;;;;;;20.90;38.90;;;;;;5048368;28;20035;-53
2023/04/27 11:28:58;;;;;;;;;;;21.00;40.20;;;;;;5049492;28;19924;-53
2023/04/27 11:31:25;;;;;;;;;;;21.80;43.70;;;;;;5048303;28;19920;-53
2023/04/27 11:33:51;;;;;;;;;;;22.30;39.20;;;;;;5048902;28;19963;-53
2023/04/27 11:36:20;;;;;;;;;;;22.40;39.90;;;;;;5049623;28;19916;-53
2023/04/27 11:38:46;;;;;;;;;;;21.70;39.50;;;;;;5048472;28;19955;-53
2023/04/27 11:41:12;;;;;;;;;;;22.00;39.90;;;;;;5050374;28;19966;-53
2023/04/27 11:43:50;;;;;;;;;;;22.30;39.00;;;;;;5050318;28;19916;-53
2023/04/27 11:46:19;;;;;;;;;;;21.90;37.20;;;;;;5050145;28;20279;-53
2023/04/27 11:48:44;;;;;;;;;;;21.90;37.80;;;;;;5050237;28;19916;-53
2023/04/27 11:51:13;;;;;;;;;;;21.40;38.40;;;;;;5042542;28;19917;-53
2023/04/27 11:53:39;;;;;;;;;;;21.60;39.30;;;;;;5042809;28;19912;-53
2023/04/27 11:56:06;;;;;;;;;;;21.80;36.40;;;;;;5044921;28;19920;-53
2023/04/27 11:58:33;;;;;;;;;;;21.20;40.40;;;;;;5048018;28;19917;-52
2023/04/27 12:00:59;;;;;;;;;;;21.00;36.50;;;;;;5047873;28;19923;-52
2023/04/27 12:03:26;;;;;;;;;;;20.50;38.90;;;;;;5049430;28;19916;-53
2023/04/27 12:05:53;;;;;;;;;;;20.90;40.70;;;;;;5049134;28;19923;-53
2023/04/27 12:08:19;;;;;;;;;;;21.30;39.10;;;;;;5049226;28;19916;-53
2023/04/27 12:10:45;;;;;;;;;;;21.10;38.60;;;;;;5048951;28;19924;-53
2023/04/27 12:13:11;;;;;;;;;;;21.00;38.10;;;;;;5048199;28;19912;-53
2023/04/27 12:15:37;;;;;;;;;;;20.80;38.50;;;;;;5048475;28;19927;-53
2023/04/27 12:18:03;;;;;;;;;;;20.40;38.60;;;;;;5048636;28;19931;-53
2023/04/27 12:20:29;;;;;;;;;;;19.90;38.60;;;;;;5046746;28;20297;-53
2023/04/27 12:22:58;;;;;;;;;;;20.00;40.10;;;;;;5048992;28;19916;-53
2023/04/27 12:25:24;;;;;;;;;;;20.00;38.40;;;;;;5048911;28;19920;-53
2023/04/27 12:27:50;;;;;;;;;;;20.00;39.30;;;;;;5047628;28;20474;-53
2023/04/27 12:30:16;;;;;;;;;;;20.10;38.30;;;;;;5046167;28;19917;-53
2023/04/27 12:32:42;;;;;;;;;;;19.80;39.00;;;;;;5049305;28;19981;-53
2023/04/27 12:35:08;;;;;;;;;;;19.40;39.10;;;;;;5048230;28;20413;-53
2023/04/27 12:37:34;;;;;;;;;;;18.80;41.50;;;;;;5045978;28;19916;-53
2023/04/27 12:40:00;;;;;;;;;;;19.30;41.70;;;;;;5046763;28;20182;-53
2023/04/27 12:42:26;;;;;;;;;;;19.80;39.80;;;;;;5048233;28;19955;-53
2023/04/27 12:44:52;;;;;;;;;;;20.00;40.60;;;;;;5049085;28;20393;-53
2023/04/27 12:47:20;;;;;;;;;;;20.50;38.60;;;;;;5047182;28;20502;-53
2023/04/27 12:49:46;;;;;;;;;;;21.10;38.80;;;;;;5047699;28;19926;-53
2023/04/27 12:52:12;;;;;;;;;;;21.10;39.40;;;;;;5047814;28;20035;-53
2023/04/27 12:54:38;;;;;;;;;;;20.90;37.30;;;;;;5047385;28;19924;-53
2023/04/27 12:57:05;;;;;;;;;;;20.30;39.10;;;;;;5047594;28;19924;-53
2023/04/27 12:59:31;;;;;;;;;;;20.20;39.90;;;;;;5047798;28;19912;-53
2023/04/27 13:01:57;;;;;;;;;;;19.60;41.80;;;;;;5047138;28;19916;-53
2023/04/27 13:04:23;;;;;;;;;;;20.20;41.90;;;;;;5046437;28;19917;-53
2023/04/27 13:06:49;;;;;;;;;;;20.70;42.00;;;;;;5046977;28;19916;-53
2023/04/27 13:09:15;;;;;;;;;;;21.00;41.50;;;;;;5047693;28;19913;-53
2023/04/27 13:11:41;;;;;;;;;;;20.50;39.00;;;;;;5047606;28;20589;-53
2023/04/27 13:14:07;;;;;;;;;;;20.80;40.90;;;;;;5045974;28;19920;-53
2023/04/27 13:16:33;;;;;;;;;;;21.60;40.00;;;;;;5045975;28;20010;-53
2023/04/27 13:18:58;;;;;;;;;;;21.50;39.60;;;;;;5047658;28;19928;-53
2023/04/27 13:21:24;;;;;;;;;;;21.10;37.10;;;;;;5040671;28;20329;-53
2023/04/27 13:23:52;;;;;;;;;;;20.90;38.20;;;;;;5065707;28;20285;-53
2023/04/27 13:26:18;;;;;;;;;;;21.40;40.60;;;;;;5072813;28;19966;-53
2023/04/27 13:28:43;;;;;;;;;;;21.60;39.20;;;;;;5064563;28;19917;-53
2023/04/27 13:31:09;;;;;;;;;;;21.00;39.80;;;;;;5052947;28;19913;-53
2023/04/27 13:33:40;;;;;;;;;;;20.10;38.90;;;;;;5052899;28;19917;-53
2023/04/27 13:36:06;;;;;;;;;;;20.20;40.20;;;;;;5052922;28;19978;-53
2023/04/27 13:38:32;;;;;;;;;;;20.60;39.70;;;;;;5052996;28;19912;-53
2023/04/27 13:40:57;;;;;;;;;;;20.30;37.70;;;;;;5052811;28;19970;-53
2023/04/27 13:43:24;;;;;;;;;;;20.00;37.10;;;;;;5052771;28;20030;-53
2023/04/27 13:45:51;;;;;;;;;;;20.20;39.40;;;;;;5052802;28;19916;-53
2023/04/27 13:48:17;;;;;;;;;;;20.30;38.20;;;;;;5052669;28;20000;-53
2023/04/27 13:50:42;;;;;;;;;;;20.70;39.70;;;;;;5051892;28;20425;-53
2023/04/27 13:53:08;;;;;;;;;;;21.10;38.60;;;;;;5052795;28;19935;-53
2023/04/27 13:55:35;;;;;;;;;;;20.70;39.20;;;;;;5052544;28;20031;-53
2023/04/27 13:58:01;;;;;;;;;;;21.00;36.60;;;;;;5053036;28;19913;-53
2023/04/27 14:00:30;;;;;;;;;;;20.80;36.10;;;;;;5052668;28;19917;-53
2023/04/27 14:02:56;;;;;;;;;;;20.80;38.70;;;;;;5052549;28;19916;-53
2023/04/27 14:05:21;;;;;;;;;;;20.60;37.10;;;;;;5052820;28;20011;-53
2023/04/27 14:07:47;;;;;;;;;;;20.70;38.60;;;;;;5052550;28;19919;-53
2023/04/27 14:10:13;;;;;;;;;;;20.50;40.50;;;;;;5052434;28;19913;-53
2023/04/27 14:12:40;;;;;;;;;;;20.30;40.20;;;;;;5052523;28;20392;-53
2023/04/27 14:15:05;;;;;;;;;;;20.50;41.50;;;;;;5055884;28;20338;-53
2023/04/27 14:17:31;;;;;;;;;;;20.20;40.70;;;;;;5055841;28;19967;-53
2023/04/27 14:19:57;;;;;;;;;;;20.20;40.70;;;;;;5056139;28;19923;-53
2023/04/27 14:22:23;;;;;;;;;;;20.30;40.70;;;;;;5056085;28;19952;-53